181 Соболиная

Карта отелей и гостиниц, располагающихся рядом с аэропортом 181 Соболиная :

181 Соболиная Томская область 58° 27' 31.9716" N, 79° 31' 54.1596" E
181 Соболиная Томская область 58° 27' 31.9716" N, 79° 31' 54.1596" E
Код аэродрома ИКАО: 
UNSB
Код аэродрома RU: 
УНСБ
Координаты: 
N58.45888° E079.53171°
Превышение над уровнем моря : 
74
Основная полоса: 
08/26
Курс магнитный: 
083,6/263,6
Длина основной ВПП: 
20
Ширина основной ВПП: 
20
Покрытие основной ВПП: 
Твёрдое
Освещение ВПП: 
Нет
Тип: 
Вертодром
Класс аэродрома: 
Принадлежность: 
ГА
Статус: 
Действующий
Сайт: 
E-mail аэродрома: 
Страна: 
Россия
Регион: 
Томская область
Город: 
Дополнительная информация: 

Найти трансфер

С помощью этой формы Вы можете найти трансфер из аэропорта 181 Соболиная в город, аэропорт или вокзал:

Карта места

Javascript is required to view this map.

Погода в аэропортах:

Авиационная погода в Ботсфьорде

Регион: 
Погода METAR: 
ENBS 251850Z 24021G31KT 9999 VCSH FEW030 09/05 Q0994
Время наблюдения: 
2020-09-25T18:50:00Z
Температура C: 
9.0
Точка росы: 
5.0
Направление ветра: 
240
Скорость ветра (узлы): 
21
Метеорологическая видимость: 
6.21
Явления погоды: 
VCSH
Условия полета: 
VFR

Авиационная погода в Гостомеле

Регион: 
Погода METAR: 
UKKM 271030Z AUTO 11007MPS 080V150 7000 -RA SCT049/// 17/16 Q1007
Время наблюдения: 
2020-09-27T10:30:00Z
Температура C: 
17.0
Точка росы: 
16.0
Направление ветра: 
110
Скорость ветра (узлы): 
14
Метеорологическая видимость: 
4.35
Явления погоды: 
-RA
Условия полета: 
MVFR
Аэропорт подробнее: 

Авиационная погода в Якутске

Регион: 
Погода METAR: 
UEEE 271030Z 12002MPS 2100 -SHRA FU SCT050CB 12/10 Q0996 R23L/09//60 NOSIG RMK QFE739
Время наблюдения: 
2020-09-27T10:30:00Z
Температура C: 
12.0
Точка росы: 
10.0
Направление ветра: 
120
Скорость ветра (узлы): 
4
Метеорологическая видимость: 
1.3
Явления погоды: 
-SHRA FU
Условия полета: 
IFR
Аэропорт подробнее: 

Авиационная погода в Хомутово

Регион: 
Погода METAR: 
UHSS 271030Z 35005MPS 9999 -SHRA BKN032CB 08/07 Q1015 R01/250255 NOSIG RMK MT OBSC QFE760/1013
Время наблюдения: 
2020-09-27T10:30:00Z
Температура C: 
8.0
Точка росы: 
7.0
Направление ветра: 
350
Скорость ветра (узлы): 
10
Метеорологическая видимость: 
6.21
Явления погоды: 
-SHRA
Условия полета: 
VFR
Аэропорт подробнее: